Milan Army Ammunition Plant, Tennessee
Current Conditions -  °F | °C
As of 1:53 PM on Thursday 27 Nov 2014 (Local Time) from KMKL Reporting Station
Overcast Overcast  
Wind Chill: 32°   Ceiling: 2700
Heat Index: 39°   Visibility: 10mi
Dew Point: 27°   Wind: 12mph
Humidity: 62%   Direction: 350°N
Pressure: 30.47"   Gusts: NA
Location:  35.9258°N, 88.7624°W
Report Text: KMKL 271953Z 35010KT 10SM OVC027 04/M03 A3047 RMK AO2 SLP319 T00391028
Loading
Personal Weather Stations






























Interactive Weather Map New forecast layout! Learn more

10-Day Weather Forecast

Advertisements
Track Severe Weather on mobile